sensor_id;sensor_type;location;lat;lon;timestamp;P1;durP1;ratioP1;P2;durP2;ratioP2
71646;SDS011;59706;45.634;11.704;2024-03-17T00:01:37;13.10;;;7.30;;
71646;SDS011;59706;45.634;11.704;2024-03-17T00:04:03;11.90;;;7.20;;
71646;SDS011;59706;45.634;11.704;2024-03-17T00:06:30;13.30;;;7.60;;
71646;SDS011;59706;45.634;11.704;2024-03-17T00:08:56;12.60;;;7.80;;
71646;SDS011;59706;45.634;11.704;2024-03-17T00:11:22;12.30;;;7.50;;
71646;SDS011;59706;45.634;11.704;2024-03-17T00:13:47;12.60;;;7.60;;
71646;SDS011;59706;45.634;11.704;2024-03-17T00:16:13;11.80;;;7.10;;
71646;SDS011;59706;45.634;11.704;2024-03-17T00:18:39;10.70;;;6.80;;
71646;SDS011;59706;45.634;11.704;2024-03-17T00:21:06;11.60;;;8.00;;
71646;SDS011;59706;45.634;11.704;2024-03-17T00:23:32;12.60;;;7.50;;
71646;SDS011;59706;45.634;11.704;2024-03-17T00:25:57;11.60;;;6.90;;
71646;SDS011;59706;45.634;11.704;2024-03-17T00:28:23;11.20;;;7.50;;
71646;SDS011;59706;45.634;11.704;2024-03-17T00:30:50;12.10;;;7.30;;
71646;SDS011;59706;45.634;11.704;2024-03-17T00:33:16;12.30;;;7.50;;
71646;SDS011;59706;45.634;11.704;2024-03-17T00:35:41;13.60;;;7.50;;
71646;SDS011;59706;45.634;11.704;2024-03-17T00:38:07;11.70;;;7.00;;
71646;SDS011;59706;45.634;11.704;2024-03-17T00:40:39;11.10;;;7.20;;
71646;SDS011;59706;45.634;11.704;2024-03-17T00:43:10;11.50;;;7.20;;
71646;SDS011;59706;45.634;11.704;2024-03-17T00:45:37;13.40;;;7.70;;
71646;SDS011;59706;45.634;11.704;2024-03-17T00:48:03;11.70;;;6.90;;
71646;SDS011;59706;45.634;11.704;2024-03-17T00:50:30;11.00;;;7.10;;
71646;SDS011;59706;45.634;11.704;2024-03-17T00:52:56;11.40;;;7.30;;
71646;SDS011;59706;45.634;11.704;2024-03-17T00:55:22;12.30;;;7.20;;
71646;SDS011;59706;45.634;11.704;2024-03-17T00:57:48;11.30;;;7.50;;
71646;SDS011;59706;45.634;11.704;2024-03-17T01:00:14;11.50;;;7.30;;
71646;SDS011;59706;45.634;11.704;2024-03-17T01:02:41;12.10;;;7.20;;
71646;SDS011;59706;45.634;11.704;2024-03-17T01:05:07;11.30;;;6.80;;
71646;SDS011;59706;45.634;11.704;2024-03-17T01:07:33;12.20;;;7.00;;
71646;SDS011;59706;45.634;11.704;2024-03-17T01:09:59;12.00;;;7.20;;
71646;SDS011;59706;45.634;11.704;2024-03-17T01:12:26;11.00;;;7.00;;
71646;SDS011;59706;45.634;11.704;2024-03-17T01:14:51;10.50;;;6.70;;
71646;SDS011;59706;45.634;11.704;2024-03-17T01:17:17;11.10;;;7.60;;
71646;SDS011;59706;45.634;11.704;2024-03-17T01:19:44;11.60;;;7.30;;
71646;SDS011;59706;45.634;11.704;2024-03-17T01:22:11;11.80;;;6.90;;
71646;SDS011;59706;45.634;11.704;2024-03-17T01:24:37;11.50;;;7.20;;
71646;SDS011;59706;45.634;11.704;2024-03-17T01:27:05;10.80;;;6.90;;
71646;SDS011;59706;45.634;11.704;2024-03-17T01:29:31;10.80;;;6.90;;
71646;SDS011;59706;45.634;11.704;2024-03-17T01:31:57;11.00;;;6.80;;
71646;SDS011;59706;45.634;11.704;2024-03-17T01:34:23;12.20;;;7.80;;
71646;SDS011;59706;45.634;11.704;2024-03-17T01:36:48;10.70;;;6.70;;
71646;SDS011;59706;45.634;11.704;2024-03-17T01:39:14;12.90;;;8.20;;
71646;SDS011;59706;45.634;11.704;2024-03-17T01:41:41;11.40;;;7.20;;
71646;SDS011;59706;45.634;11.704;2024-03-17T01:44:07;12.10;;;8.00;;
71646;SDS011;59706;45.634;11.704;2024-03-17T01:46:33;10.40;;;6.70;;
71646;SDS011;59706;45.634;11.704;2024-03-17T01:48:59;12.00;;;7.90;;
71646;SDS011;59706;45.634;11.704;2024-03-17T01:51:25;11.50;;;7.00;;
71646;SDS011;59706;45.634;11.704;2024-03-17T01:53:51;11.70;;;7.10;;
71646;SDS011;59706;45.634;11.704;2024-03-17T01:56:17;11.10;;;7.70;;
71646;SDS011;59706;45.634;11.704;2024-03-17T01:58:44;11.60;;;7.50;;
71646;SDS011;59706;45.634;11.704;2024-03-17T02:01:11;10.50;;;6.70;;
71646;SDS011;59706;45.634;11.704;2024-03-17T02:03:41;11.50;;;6.70;;
71646;SDS011;59706;45.634;11.704;2024-03-17T02:06:08;12.00;;;7.40;;
71646;SDS011;59706;45.634;11.704;2024-03-17T02:08:51;12.50;;;7.30;;
71646;SDS011;59706;45.634;11.704;2024-03-17T02:11:30;11.00;;;6.80;;
71646;SDS011;59706;45.634;11.704;2024-03-17T02:13:58;10.00;;;6.50;;
71646;SDS011;59706;45.634;11.704;2024-03-17T02:16:24;11.30;;;6.40;;
71646;SDS011;59706;45.634;11.704;2024-03-17T02:18:54;11.60;;;7.20;;
71646;SDS011;59706;45.634;11.704;2024-03-17T02:21:21;12.00;;;7.20;;
71646;SDS011;59706;45.634;11.704;2024-03-17T02:23:53;11.40;;;7.30;;
71646;SDS011;59706;45.634;11.704;2024-03-17T02:26:19;12.40;;;7.30;;
71646;SDS011;59706;45.634;11.704;2024-03-17T02:28:47;10.80;;;7.00;;
71646;SDS011;59706;45.634;11.704;2024-03-17T02:31:14;11.40;;;7.80;;
71646;SDS011;59706;45.634;11.704;2024-03-17T02:33:41;11.20;;;6.90;;
71646;SDS011;59706;45.634;11.704;2024-03-17T02:36:08;11.40;;;7.30;;
71646;SDS011;59706;45.634;11.704;2024-03-17T02:38:35;12.20;;;7.80;;
71646;SDS011;59706;45.634;11.704;2024-03-17T02:41:19;12.10;;;7.20;;
71646;SDS011;59706;45.634;11.704;2024-03-17T02:43:46;11.70;;;7.50;;
71646;SDS011;59706;45.634;11.704;2024-03-17T02:46:13;10.80;;;7.70;;
71646;SDS011;59706;45.634;11.704;2024-03-17T02:48:40;11.60;;;7.40;;
71646;SDS011;59706;45.634;11.704;2024-03-17T02:51:14;10.80;;;7.20;;
71646;SDS011;59706;45.634;11.704;2024-03-17T02:53:41;11.00;;;7.80;;
71646;SDS011;59706;45.634;11.704;2024-03-17T02:56:08;12.20;;;8.40;;
71646;SDS011;59706;45.634;11.704;2024-03-17T02:58:35;12.00;;;7.80;;
71646;SDS011;59706;45.634;11.704;2024-03-17T03:01:06;10.70;;;7.00;;
71646;SDS011;59706;45.634;11.704;2024-03-17T03:03:32;11.20;;;7.60;;
71646;SDS011;59706;45.634;11.704;2024-03-17T03:05:59;11.50;;;7.20;;
71646;SDS011;59706;45.634;11.704;2024-03-17T03:08:38;10.80;;;7.50;;
71646;SDS011;59706;45.634;11.704;2024-03-17T03:11:07;11.30;;;7.30;;
71646;SDS011;59706;45.634;11.704;2024-03-17T03:13:40;10.90;;;7.00;;
71646;SDS011;59706;45.634;11.704;2024-03-17T03:16:07;10.50;;;6.70;;
71646;SDS011;59706;45.634;11.704;2024-03-17T03:18:38;11.40;;;7.20;;
71646;SDS011;59706;45.634;11.704;2024-03-17T03:21:04;11.30;;;7.60;;
71646;SDS011;59706;45.634;11.704;2024-03-17T03:23:31;12.00;;;8.00;;
71646;SDS011;59706;45.634;11.704;2024-03-17T03:25:58;11.50;;;7.30;;
71646;SDS011;59706;45.634;11.704;2024-03-17T03:28:26;11.50;;;7.80;;
71646;SDS011;59706;45.634;11.704;2024-03-17T03:30:52;11.20;;;7.30;;
71646;SDS011;59706;45.634;11.704;2024-03-17T03:33:19;12.30;;;7.80;;
71646;SDS011;59706;45.634;11.704;2024-03-17T03:35:45;11.20;;;7.70;;
71646;SDS011;59706;45.634;11.704;2024-03-17T03:38:12;11.30;;;7.90;;
71646;SDS011;59706;45.634;11.704;2024-03-17T03:40:39;11.00;;;6.90;;
71646;SDS011;59706;45.634;11.704;2024-03-17T03:43:09;12.00;;;7.90;;
71646;SDS011;59706;45.634;11.704;2024-03-17T03:45:36;11.60;;;8.40;;
71646;SDS011;59706;45.634;11.704;2024-03-17T03:48:03;11.40;;;7.40;;
71646;SDS011;59706;45.634;11.704;2024-03-17T03:50:30;11.20;;;7.20;;
71646;SDS011;59706;45.634;11.704;2024-03-17T03:52:56;10.90;;;7.20;;
71646;SDS011;59706;45.634;11.704;2024-03-17T03:55:22;10.80;;;7.40;;
71646;SDS011;59706;45.634;11.704;2024-03-17T03:57:49;12.60;;;8.00;;
71646;SDS011;59706;45.634;11.704;2024-03-17T04:00:18;11.40;;;7.80;;
71646;SDS011;59706;45.634;11.704;2024-03-17T04:02:48;11.80;;;8.00;;
71646;SDS011;59706;45.634;11.704;2024-03-17T04:05:17;11.60;;;7.80;;
71646;SDS011;59706;45.634;11.704;2024-03-17T04:07:44;11.00;;;7.40;;
71646;SDS011;59706;45.634;11.704;2024-03-17T04:10:15;10.90;;;7.30;;
71646;SDS011;59706;45.634;11.704;2024-03-17T04:12:44;11.80;;;7.70;;
71646;SDS011;59706;45.634;11.704;2024-03-17T04:15:10;10.60;;;7.30;;
71646;SDS011;59706;45.634;11.704;2024-03-17T04:17:36;11.80;;;8.00;;
71646;SDS011;59706;45.634;11.704;2024-03-17T04:20:03;10.50;;;6.90;;
71646;SDS011;59706;45.634;11.704;2024-03-17T04:22:36;11.40;;;7.70;;
71646;SDS011;59706;45.634;11.704;2024-03-17T04:25:02;11.30;;;7.60;;
71646;SDS011;59706;45.634;11.704;2024-03-17T04:27:30;11.10;;;7.30;;
71646;SDS011;59706;45.634;11.704;2024-03-17T04:29:59;10.70;;;7.10;;
71646;SDS011;59706;45.634;11.704;2024-03-17T04:32:25;11.60;;;7.80;;
71646;SDS011;59706;45.634;11.704;2024-03-17T04:34:56;10.90;;;7.20;;
71646;SDS011;59706;45.634;11.704;2024-03-17T04:37:21;11.00;;;7.60;;
71646;SDS011;59706;45.634;11.704;2024-03-17T04:39:48;11.60;;;7.20;;
71646;SDS011;59706;45.634;11.704;2024-03-17T04:42:15;10.60;;;7.10;;
71646;SDS011;59706;45.634;11.704;2024-03-17T04:44:43;11.70;;;7.50;;
71646;SDS011;59706;45.634;11.704;2024-03-17T04:47:09;11.10;;;7.80;;
71646;SDS011;59706;45.634;11.704;2024-03-17T04:49:43;11.00;;;7.60;;
71646;SDS011;59706;45.634;11.704;2024-03-17T04:52:10;11.10;;;7.60;;
71646;SDS011;59706;45.634;11.704;2024-03-17T04:54:37;10.90;;;7.00;;
71646;SDS011;59706;45.634;11.704;2024-03-17T04:57:02;11.00;;;7.60;;
71646;SDS011;59706;45.634;11.704;2024-03-17T04:59:29;11.80;;;7.60;;
71646;SDS011;59706;45.634;11.704;2024-03-17T05:01:55;11.20;;;8.10;;
71646;SDS011;59706;45.634;11.704;2024-03-17T05:04:21;11.70;;;7.40;;
71646;SDS011;59706;45.634;11.704;2024-03-17T05:06:48;11.40;;;7.00;;
71646;SDS011;59706;45.634;11.704;2024-03-17T05:09:18;11.80;;;7.50;;
71646;SDS011;59706;45.634;11.704;2024-03-17T05:11:44;11.70;;;7.60;;
71646;SDS011;59706;45.634;11.704;2024-03-17T05:14:11;11.50;;;7.90;;
71646;SDS011;59706;45.634;11.704;2024-03-17T05:16:37;11.70;;;8.00;;
71646;SDS011;59706;45.634;11.704;2024-03-17T05:19:04;11.20;;;7.50;;
71646;SDS011;59706;45.634;11.704;2024-03-17T05:21:31;11.10;;;7.60;;
71646;SDS011;59706;45.634;11.704;2024-03-17T05:23:58;11.20;;;7.60;;
71646;SDS011;59706;45.634;11.704;2024-03-17T05:26:27;11.10;;;7.50;;
71646;SDS011;59706;45.634;11.704;2024-03-17T05:28:53;12.50;;;7.20;;
71646;SDS011;59706;45.634;11.704;2024-03-17T05:31:19;10.80;;;7.30;;
71646;SDS011;59706;45.634;11.704;2024-03-17T05:33:48;11.10;;;7.30;;
71646;SDS011;59706;45.634;11.704;2024-03-17T05:36:17;12.00;;;7.70;;
71646;SDS011;59706;45.634;11.704;2024-03-17T05:38:45;10.70;;;7.20;;
71646;SDS011;59706;45.634;11.704;2024-03-17T05:41:12;10.80;;;7.30;;
71646;SDS011;59706;45.634;11.704;2024-03-17T05:43:40;10.80;;;7.00;;
71646;SDS011;59706;45.634;11.704;2024-03-17T05:46:10;11.20;;;7.80;;
71646;SDS011;59706;45.634;11.704;2024-03-17T05:48:39;12.30;;;7.80;;
71646;SDS011;59706;45.634;11.704;2024-03-17T05:51:07;10.30;;;7.40;;
71646;SDS011;59706;45.634;11.704;2024-03-17T05:53:34;11.50;;;7.30;;
71646;SDS011;59706;45.634;11.704;2024-03-17T05:56:01;10.70;;;7.40;;
71646;SDS011;59706;45.634;11.704;2024-03-17T05:58:28;11.90;;;7.50;;
71646;SDS011;59706;45.634;11.704;2024-03-17T06:00:54;12.60;;;7.50;;
71646;SDS011;59706;45.634;11.704;2024-03-17T06:03:19;12.00;;;7.90;;
71646;SDS011;59706;45.634;11.704;2024-03-17T06:05:47;12.40;;;7.60;;
71646;SDS011;59706;45.634;11.704;2024-03-17T06:08:13;12.10;;;6.90;;
71646;SDS011;59706;45.634;11.704;2024-03-17T06:10:48;10.40;;;7.30;;
71646;SDS011;59706;45.634;11.704;2024-03-17T06:13:15;11.60;;;7.60;;
71646;SDS011;59706;45.634;11.704;2024-03-17T06:15:43;10.90;;;7.10;;
71646;SDS011;59706;45.634;11.704;2024-03-17T06:18:11;10.70;;;7.10;;
71646;SDS011;59706;45.634;11.704;2024-03-17T06:20:44;11.60;;;7.10;;
71646;SDS011;59706;45.634;11.704;2024-03-17T06:23:11;10.80;;;7.10;;
71646;SDS011;59706;45.634;11.704;2024-03-17T06:25:41;10.50;;;6.90;;
71646;SDS011;59706;45.634;11.704;2024-03-17T06:28:11;11.40;;;7.40;;
71646;SDS011;59706;45.634;11.704;2024-03-17T06:30:56;11.30;;;7.50;;
71646;SDS011;59706;45.634;11.704;2024-03-17T06:33:26;10.60;;;7.00;;
71646;SDS011;59706;45.634;11.704;2024-03-17T06:35:53;10.50;;;6.90;;
71646;SDS011;59706;45.634;11.704;2024-03-17T06:38:20;10.60;;;7.10;;
71646;SDS011;59706;45.634;11.704;2024-03-17T06:40:51;10.80;;;7.10;;
71646;SDS011;59706;45.634;11.704;2024-03-17T06:43:19;10.40;;;6.70;;
71646;SDS011;59706;45.634;11.704;2024-03-17T06:45:58;11.20;;;7.70;;
71646;SDS011;59706;45.634;11.704;2024-03-17T06:48:25;10.70;;;7.20;;
71646;SDS011;59706;45.634;11.704;2024-03-17T06:50:52;12.20;;;7.40;;
71646;SDS011;59706;45.634;11.704;2024-03-17T06:53:23;10.50;;;6.90;;
71646;SDS011;59706;45.634;11.704;2024-03-17T06:55:57;11.20;;;7.50;;
71646;SDS011;59706;45.634;11.704;2024-03-17T06:58:25;11.40;;;6.80;;
71646;SDS011;59706;45.634;11.704;2024-03-17T07:00:56;11.10;;;7.10;;
71646;SDS011;59706;45.634;11.704;2024-03-17T07:03:24;10.70;;;7.40;;
71646;SDS011;59706;45.634;11.704;2024-03-17T07:05:58;11.60;;;7.20;;
71646;SDS011;59706;45.634;11.704;2024-03-17T07:08:27;10.10;;;6.60;;
71646;SDS011;59706;45.634;11.704;2024-03-17T07:11:06;10.90;;;7.50;;
71646;SDS011;59706;45.634;11.704;2024-03-17T07:13:35;10.20;;;6.80;;
71646;SDS011;59706;45.634;11.704;2024-03-17T07:16:03;10.90;;;6.90;;
71646;SDS011;59706;45.634;11.704;2024-03-17T07:18:33;10.50;;;7.20;;
71646;SDS011;59706;45.634;11.704;2024-03-17T07:21:02;10.40;;;6.70;;
71646;SDS011;59706;45.634;11.704;2024-03-17T07:23:31;10.30;;;7.00;;
71646;SDS011;59706;45.634;11.704;2024-03-17T07:25:59;10.50;;;7.00;;
71646;SDS011;59706;45.634;11.704;2024-03-17T07:28:31;10.70;;;7.30;;
71646;SDS011;59706;45.634;11.704;2024-03-17T07:31:00;10.90;;;7.00;;
71646;SDS011;59706;45.634;11.704;2024-03-17T07:33:27;11.20;;;7.20;;
71646;SDS011;59706;45.634;11.704;2024-03-17T07:35:54;10.80;;;7.10;;
71646;SDS011;59706;45.634;11.704;2024-03-17T07:38:23;10.80;;;7.60;;
71646;SDS011;59706;45.634;11.704;2024-03-17T07:41:02;11.80;;;8.20;;
71646;SDS011;59706;45.634;11.704;2024-03-17T07:43:36;10.90;;;7.60;;
71646;SDS011;59706;45.634;11.704;2024-03-17T07:46:09;11.50;;;7.20;;
71646;SDS011;59706;45.634;11.704;2024-03-17T07:48:39;10.40;;;6.60;;
71646;SDS011;59706;45.634;11.704;2024-03-17T07:51:16;10.30;;;6.90;;
71646;SDS011;59706;45.634;11.704;2024-03-17T07:53:46;10.50;;;7.10;;
71646;SDS011;59706;45.634;11.704;2024-03-17T07:56:14;10.80;;;7.10;;
71646;SDS011;59706;45.634;11.704;2024-03-17T07:58:42;10.10;;;6.80;;
71646;SDS011;59706;45.634;11.704;2024-03-17T08:01:13;10.60;;;7.00;;
71646;SDS011;59706;45.634;11.704;2024-03-17T08:03:46;10.80;;;7.20;;
71646;SDS011;59706;45.634;11.704;2024-03-17T08:06:21;10.70;;;7.00;;
71646;SDS011;59706;45.634;11.704;2024-03-17T08:08:49;10.70;;;6.90;;
71646;SDS011;59706;45.634;11.704;2024-03-17T08:11:17;10.90;;;7.20;;
71646;SDS011;59706;45.634;11.704;2024-03-17T08:13:43;10.30;;;6.60;;
71646;SDS011;59706;45.634;11.704;2024-03-17T08:16:09;10.60;;;7.20;;
71646;SDS011;59706;45.634;11.704;2024-03-17T08:18:36;10.40;;;7.10;;
71646;SDS011;59706;45.634;11.704;2024-03-17T08:21:05;10.80;;;6.90;;
71646;SDS011;59706;45.634;11.704;2024-03-17T08:23:33;9.80;;;6.40;;
71646;SDS011;59706;45.634;11.704;2024-03-17T08:26:09;10.10;;;6.90;;
71646;SDS011;59706;45.634;11.704;2024-03-17T08:28:36;10.50;;;6.70;;
71646;SDS011;59706;45.634;11.704;2024-03-17T08:31:05;10.40;;;7.00;;
71646;SDS011;59706;45.634;11.704;2024-03-17T08:33:32;10.20;;;6.90;;
71646;SDS011;59706;45.634;11.704;2024-03-17T08:36:03;11.40;;;6.80;;
71646;SDS011;59706;45.634;11.704;2024-03-17T08:38:31;12.40;;;6.10;;
71646;SDS011;59706;45.634;11.704;2024-03-17T08:41:05;13.50;;;6.90;;
71646;SDS011;59706;45.634;11.704;2024-03-17T08:43:35;12.10;;;7.40;;
71646;SDS011;59706;45.634;11.704;2024-03-17T08:46:06;13.70;;;7.50;;
71646;SDS011;59706;45.634;11.704;2024-03-17T08:48:34;15.20;;;7.60;;
71646;SDS011;59706;45.634;11.704;2024-03-17T08:51:03;14.20;;;7.70;;
71646;SDS011;59706;45.634;11.704;2024-03-17T08:53:30;13.90;;;7.50;;
71646;SDS011;59706;45.634;11.704;2024-03-17T08:55:57;13.30;;;7.80;;
71646;SDS011;59706;45.634;11.704;2024-03-17T08:58:24;12.20;;;7.90;;
71646;SDS011;59706;45.634;11.704;2024-03-17T09:00:51;15.40;;;8.50;;
71646;SDS011;59706;45.634;11.704;2024-03-17T09:03:17;13.30;;;7.80;;
71646;SDS011;59706;45.634;11.704;2024-03-17T09:05:45;13.10;;;8.00;;
71646;SDS011;59706;45.634;11.704;2024-03-17T09:08:16;12.50;;;7.70;;
71646;SDS011;59706;45.634;11.704;2024-03-17T09:10:50;15.90;;;7.80;;
71646;SDS011;59706;45.634;11.704;2024-03-17T09:13:19;13.10;;;8.30;;
71646;SDS011;59706;45.634;11.704;2024-03-17T09:16:00;14.10;;;8.00;;
71646;SDS011;59706;45.634;11.704;2024-03-17T09:18:28;16.70;;;8.80;;
71646;SDS011;59706;45.634;11.704;2024-03-17T09:23:30;14.00;;;8.20;;
71646;SDS011;59706;45.634;11.704;2024-03-17T09:26:01;15.20;;;9.30;;
71646;SDS011;59706;45.634;11.704;2024-03-17T09:28:32;17.00;;;10.10;;
71646;SDS011;59706;45.634;11.704;2024-03-17T09:30:59;18.00;;;9.50;;
71646;SDS011;59706;45.634;11.704;2024-03-17T09:33:27;14.30;;;9.80;;
71646;SDS011;59706;45.634;11.704;2024-03-17T09:35:58;18.90;;;11.10;;
71646;SDS011;59706;45.634;11.704;2024-03-17T09:38:26;15.20;;;10.00;;
71646;SDS011;59706;45.634;11.704;2024-03-17T09:40:54;18.20;;;11.30;;
71646;SDS011;59706;45.634;11.704;2024-03-17T09:43:32;16.50;;;10.00;;
71646;SDS011;59706;45.634;11.704;2024-03-17T09:46:05;18.10;;;10.70;;
71646;SDS011;59706;45.634;11.704;2024-03-17T09:48:34;18.70;;;11.70;;
71646;SDS011;59706;45.634;11.704;2024-03-17T09:51:01;16.40;;;11.00;;
71646;SDS011;59706;45.634;11.704;2024-03-17T09:53:34;16.80;;;10.70;;
71646;SDS011;59706;45.634;11.704;2024-03-17T09:56:12;16.70;;;11.30;;
71646;SDS011;59706;45.634;11.704;2024-03-17T09:58:42;16.00;;;10.40;;
71646;SDS011;59706;45.634;11.704;2024-03-17T10:01:09;15.80;;;10.00;;
71646;SDS011;59706;45.634;11.704;2024-03-17T10:03:50;16.50;;;9.80;;
71646;SDS011;59706;45.634;11.704;2024-03-17T10:06:23;19.10;;;10.80;;
71646;SDS011;59706;45.634;11.704;2024-03-17T10:08:51;16.50;;;10.10;;
71646;SDS011;59706;45.634;11.704;2024-03-17T10:11:20;15.30;;;9.50;;
71646;SDS011;59706;45.634;11.704;2024-03-17T10:14:02;16.00;;;9.70;;
71646;SDS011;59706;45.634;11.704;2024-03-17T10:16:30;15.60;;;10.70;;
71646;SDS011;59706;45.634;11.704;2024-03-17T10:19:11;16.20;;;10.70;;
71646;SDS011;59706;45.634;11.704;2024-03-17T10:21:43;19.30;;;11.80;;
71646;SDS011;59706;45.634;11.704;2024-03-17T10:24:14;18.30;;;11.90;;
71646;SDS011;59706;45.634;11.704;2024-03-17T10:26:58;16.20;;;11.00;;
71646;SDS011;59706;45.634;11.704;2024-03-17T10:29:30;17.40;;;10.90;;
71646;SDS011;59706;45.634;11.704;2024-03-17T10:31:58;16.90;;;11.50;;
71646;SDS011;59706;45.634;11.704;2024-03-17T10:34:28;16.60;;;11.40;;
71646;SDS011;59706;45.634;11.704;2024-03-17T10:37:13;16.90;;;11.50;;
71646;SDS011;59706;45.634;11.704;2024-03-17T10:39:41;18.10;;;11.90;;
71646;SDS011;59706;45.634;11.704;2024-03-17T10:42:09;17.60;;;11.50;;
71646;SDS011;59706;45.634;11.704;2024-03-17T10:44:40;18.70;;;11.40;;
71646;SDS011;59706;45.634;11.704;2024-03-17T10:47:25;21.60;;;11.50;;
71646;SDS011;59706;45.634;11.704;2024-03-17T10:49:54;19.60;;;12.40;;
71646;SDS011;59706;45.634;11.704;2024-03-17T10:52:22;19.90;;;12.80;;
71646;SDS011;59706;45.634;11.704;2024-03-17T10:54:52;18.70;;;12.60;;
71646;SDS011;59706;45.634;11.704;2024-03-17T11:00:03;19.70;;;12.50;;
71646;SDS011;59706;45.634;11.704;2024-03-17T11:02:31;18.10;;;12.80;;
71646;SDS011;59706;45.634;11.704;2024-03-17T11:07:46;19.20;;;12.70;;
71646;SDS011;59706;45.634;11.704;2024-03-17T11:10:25;22.20;;;13.20;;
71646;SDS011;59706;45.634;11.704;2024-03-17T11:13:02;21.50;;;12.90;;
71646;SDS011;59706;45.634;11.704;2024-03-17T11:20:38;21.70;;;13.10;;
71646;SDS011;59706;45.634;11.704;2024-03-17T11:23:05;22.70;;;13.50;;
71646;SDS011;59706;45.634;11.704;2024-03-17T11:28:00;22.20;;;13.90;;
71646;SDS011;59706;45.634;11.704;2024-03-17T11:30:43;20.80;;;13.60;;
71646;SDS011;59706;45.634;11.704;2024-03-17T11:41:43;21.30;;;12.40;;
71646;SDS011;59706;45.634;11.704;2024-03-17T11:47:01;44.70;;;19.00;;
71646;SDS011;59706;45.634;11.704;2024-03-17T11:49:41;67.00;;;26.80;;
71646;SDS011;59706;45.634;11.704;2024-03-17T11:52:13;86.70;;;31.60;;
71646;SDS011;59706;45.634;11.704;2024-03-17T11:54:45;94.00;;;33.80;;
71646;SDS011;59706;45.634;11.704;2024-03-17T11:57:13;101.80;;;35.10;;
71646;SDS011;59706;45.634;11.704;2024-03-17T11:59:40;116.70;;;36.70;;
71646;SDS011;59706;45.634;11.704;2024-03-17T12:02:26;102.20;;;36.10;;
71646;SDS011;59706;45.634;11.704;2024-03-17T12:05:02;117.30;;;38.70;;
71646;SDS011;59706;45.634;11.704;2024-03-17T12:07:28;117.80;;;38.10;;
71646;SDS011;59706;45.634;11.704;2024-03-17T12:09:55;114.60;;;39.70;;
71646;SDS011;59706;45.634;11.704;2024-03-17T12:12:24;117.10;;;38.00;;
71646;SDS011;59706;45.634;11.704;2024-03-17T12:14:56;104.50;;;37.60;;
71646;SDS011;59706;45.634;11.704;2024-03-17T12:17:23;103.30;;;37.10;;
71646;SDS011;59706;45.634;11.704;2024-03-17T12:19:51;112.20;;;37.90;;
71646;SDS011;59706;45.634;11.704;2024-03-17T12:22:21;103.50;;;37.70;;
71646;SDS011;59706;45.634;11.704;2024-03-17T12:24:53;105.10;;;37.20;;
71646;SDS011;59706;45.634;11.704;2024-03-17T12:27:22;105.80;;;36.40;;
71646;SDS011;59706;45.634;11.704;2024-03-17T12:29:53;104.10;;;36.00;;
71646;SDS011;59706;45.634;11.704;2024-03-17T12:32:23;112.80;;;37.50;;
71646;SDS011;59706;45.634;11.704;2024-03-17T12:34:51;111.50;;;36.10;;
71646;SDS011;59706;45.634;11.704;2024-03-17T12:37:20;98.90;;;36.30;;
71646;SDS011;59706;45.634;11.704;2024-03-17T12:39:47;94.90;;;35.70;;
71646;SDS011;59706;45.634;11.704;2024-03-17T12:42:23;99.30;;;33.10;;
71646;SDS011;59706;45.634;11.704;2024-03-17T12:44:57;93.70;;;34.30;;
71646;SDS011;59706;45.634;11.704;2024-03-17T12:47:30;91.60;;;32.10;;
71646;SDS011;59706;45.634;11.704;2024-03-17T12:50:00;91.70;;;33.20;;
71646;SDS011;59706;45.634;11.704;2024-03-17T12:52:28;90.50;;;32.40;;
71646;SDS011;59706;45.634;11.704;2024-03-17T12:55:03;87.30;;;32.40;;
71646;SDS011;59706;45.634;11.704;2024-03-17T12:58:07;89.90;;;31.30;;
71646;SDS011;59706;45.634;11.704;2024-03-17T13:01:00;83.30;;;30.60;;
71646;SDS011;59706;45.634;11.704;2024-03-17T13:03:32;81.90;;;30.80;;
71646;SDS011;59706;45.634;11.704;2024-03-17T13:06:00;81.10;;;30.40;;
71646;SDS011;59706;45.634;11.704;2024-03-17T13:08:28;78.10;;;31.10;;
71646;SDS011;59706;45.634;11.704;2024-03-17T13:10:54;86.60;;;31.00;;
71646;SDS011;59706;45.634;11.704;2024-03-17T13:13:20;80.00;;;30.70;;
71646;SDS011;59706;45.634;11.704;2024-03-17T13:15:46;77.70;;;29.60;;
71646;SDS011;59706;45.634;11.704;2024-03-17T13:18:16;81.00;;;30.10;;
71646;SDS011;59706;45.634;11.704;2024-03-17T13:20:49;79.30;;;29.60;;
71646;SDS011;59706;45.634;11.704;2024-03-17T13:23:15;77.40;;;28.30;;
71646;SDS011;59706;45.634;11.704;2024-03-17T13:25:41;75.50;;;28.80;;
71646;SDS011;59706;45.634;11.704;2024-03-17T13:28:09;73.70;;;27.70;;
71646;SDS011;59706;45.634;11.704;2024-03-17T13:30:35;69.40;;;27.70;;
71646;SDS011;59706;45.634;11.704;2024-03-17T13:33:05;75.50;;;28.30;;
71646;SDS011;59706;45.634;11.704;2024-03-17T13:35:35;71.00;;;26.80;;
71646;SDS011;59706;45.634;11.704;2024-03-17T13:38:08;67.90;;;26.70;;
71646;SDS011;59706;45.634;11.704;2024-03-17T13:40:37;68.90;;;26.20;;
71646;SDS011;59706;45.634;11.704;2024-03-17T13:43:04;66.50;;;26.10;;
71646;SDS011;59706;45.634;11.704;2024-03-17T13:45:40;65.60;;;26.30;;
71646;SDS011;59706;45.634;11.704;2024-03-17T13:48:08;65.80;;;26.20;;
71646;SDS011;59706;45.634;11.704;2024-03-17T13:50:38;61.30;;;26.00;;
71646;SDS011;59706;45.634;11.704;2024-03-17T13:53:15;58.30;;;24.10;;
71646;SDS011;59706;45.634;11.704;2024-03-17T13:55:40;62.10;;;25.90;;
71646;SDS011;59706;45.634;11.704;2024-03-17T13:58:06;60.40;;;24.60;;
71646;SDS011;59706;45.634;11.704;2024-03-17T14:00:33;55.20;;;24.00;;
71646;SDS011;59706;45.634;11.704;2024-03-17T14:03:03;56.40;;;23.30;;
71646;SDS011;59706;45.634;11.704;2024-03-17T14:05:29;57.40;;;24.00;;
71646;SDS011;59706;45.634;11.704;2024-03-17T14:07:56;57.70;;;23.20;;
71646;SDS011;59706;45.634;11.704;2024-03-17T14:10:25;55.30;;;22.70;;
71646;SDS011;59706;45.634;11.704;2024-03-17T14:12:51;54.40;;;23.30;;
71646;SDS011;59706;45.634;11.704;2024-03-17T14:15:19;55.30;;;23.30;;
71646;SDS011;59706;45.634;11.704;2024-03-17T14:17:48;51.90;;;21.90;;
71646;SDS011;59706;45.634;11.704;2024-03-17T14:20:16;51.10;;;22.60;;
71646;SDS011;59706;45.634;11.704;2024-03-17T14:22:47;54.00;;;22.80;;
71646;SDS011;59706;45.634;11.704;2024-03-17T14:25:22;51.40;;;22.60;;
71646;SDS011;59706;45.634;11.704;2024-03-17T14:27:52;52.10;;;21.40;;
71646;SDS011;59706;45.634;11.704;2024-03-17T14:30:19;49.60;;;22.30;;
71646;SDS011;59706;45.634;11.704;2024-03-17T14:32:47;51.50;;;22.00;;
71646;SDS011;59706;45.634;11.704;2024-03-17T14:35:14;51.90;;;21.80;;
71646;SDS011;59706;45.634;11.704;2024-03-17T14:37:42;51.50;;;21.90;;
71646;SDS011;59706;45.634;11.704;2024-03-17T14:40:14;50.70;;;21.60;;
71646;SDS011;59706;45.634;11.704;2024-03-17T14:42:52;49.60;;;20.40;;
71646;SDS011;59706;45.634;11.704;2024-03-17T14:45:20;49.60;;;21.60;;
71646;SDS011;59706;45.634;11.704;2024-03-17T14:47:47;55.80;;;21.10;;
71646;SDS011;59706;45.634;11.704;2024-03-17T14:50:13;53.20;;;22.30;;
71646;SDS011;59706;45.634;11.704;2024-03-17T14:52:39;54.60;;;22.30;;
71646;SDS011;59706;45.634;11.704;2024-03-17T14:55:12;57.20;;;23.40;;